Angoon, Alaska
Current Conditions -  °F | °C
As of 5:56 PM on Friday 28 Nov 2014 (Local Time) from PAGN Reporting Station
Unknown Precip Unknown Precip  
Wind Chill: 23°   Ceiling: Unl
Heat Index: 23°   Visibility: 10mi
Dew Point: 14°   Wind: 0mph
Humidity: 68%   Direction: NA
Pressure: 30.19"   Gusts: NA
Location:  57.5°N, 134.59°W
Report Text: PAGN 290256Z AUTO 00000KT 10SM UP CLR M05/M10 A3019 RMK AO2 TSNO 56006 60000 T10501100 UPB52 P0000 SLP226 $
Loading
Personal Weather Stations






























Interactive Weather Map New forecast layout! Learn more

10-Day Weather Forecast

Advertisements
Track Severe Weather on mobile